sensor_id;sensor_type;location;lat;lon;timestamp;pressure;altitude;pressure_sealevel;temperature;humidity
75538;BME280;64121;48.666;8.114;2023-03-12T00:00:42;99759.66;;;-1.12;81.87
75538;BME280;64121;48.666;8.114;2023-03-12T00:03:08;99755.59;;;-1.09;83.20
75538;BME280;64121;48.666;8.114;2023-03-12T00:05:37;99753.13;;;-1.16;83.79
75538;BME280;64121;48.666;8.114;2023-03-12T00:08:03;99745.50;;;-1.19;82.66
75538;BME280;64121;48.666;8.114;2023-03-12T00:10:29;99741.13;;;-1.20;82.17
75538;BME280;64121;48.666;8.114;2023-03-12T00:12:54;99747.66;;;-1.16;81.82
75538;BME280;64121;48.666;8.114;2023-03-12T00:15:20;99738.66;;;-1.16;84.13
75538;BME280;64121;48.666;8.114;2023-03-12T00:17:45;99742.50;;;-1.23;83.44
75538;BME280;64121;48.666;8.114;2023-03-12T00:20:11;99742.00;;;-1.30;85.38
75538;BME280;64121;48.666;8.114;2023-03-12T00:22:38;99742.78;;;-1.34;84.49
75538;BME280;64121;48.666;8.114;2023-03-12T00:25:06;99739.78;;;-1.33;84.04
75538;BME280;64121;48.666;8.114;2023-03-12T00:27:32;99745.25;;;-1.33;84.29
75538;BME280;64121;48.666;8.114;2023-03-12T00:29:57;99733.25;;;-1.27;84.83
75538;BME280;64121;48.666;8.114;2023-03-12T00:32:23;99731.06;;;-1.30;84.67
75538;BME280;64121;48.666;8.114;2023-03-12T00:34:50;99731.91;;;-1.29;83.96
75538;BME280;64121;48.666;8.114;2023-03-12T00:37:15;99731.59;;;-1.33;84.71
75538;BME280;64121;48.666;8.114;2023-03-12T00:39:42;99730.00;;;-1.39;84.09
75538;BME280;64121;48.666;8.114;2023-03-12T00:42:07;99735.72;;;-1.40;83.41
75538;BME280;64121;48.666;8.114;2023-03-12T00:44:33;99736.53;;;-1.35;83.20
75538;BME280;64121;48.666;8.114;2023-03-12T00:46:58;99742.00;;;-1.30;83.28
75538;BME280;64121;48.666;8.114;2023-03-12T00:49:23;99733.25;;;-1.27;83.54
75538;BME280;64121;48.666;8.114;2023-03-12T00:51:49;99737.06;;;-1.23;83.48
75538;BME280;64121;48.666;8.114;2023-03-12T00:54:14;99744.69;;;-1.19;84.00
75538;BME280;64121;48.666;8.114;2023-03-12T00:56:41;99743.84;;;-1.10;85.36
75538;BME280;64121;48.666;8.114;2023-03-12T00:59:06;99746.84;;;-1.16;85.95
75538;BME280;64121;48.666;8.114;2023-03-12T01:01:31;99754.78;;;-1.20;85.67
75538;BME280;64121;48.666;8.114;2023-03-12T01:03:57;99759.97;;;-1.18;84.90
75538;BME280;64121;48.666;8.114;2023-03-12T01:06:22;99761.88;;;-1.19;84.78
75538;BME280;64121;48.666;8.114;2023-03-12T01:08:48;99764.03;;;-1.16;83.61
75538;BME280;64121;48.666;8.114;2023-03-12T01:11:13;99765.41;;;-1.13;83.57
75538;BME280;64121;48.666;8.114;2023-03-12T01:13:40;99763.47;;;-1.13;83.34
75538;BME280;64121;48.666;8.114;2023-03-12T01:16:07;99776.31;;;-1.13;84.63
75538;BME280;64121;48.666;8.114;2023-03-12T01:18:32;99770.56;;;-1.12;85.75
75538;BME280;64121;48.666;8.114;2023-03-12T01:20:58;99768.94;;;-1.08;86.13
75538;BME280;64121;48.666;8.114;2023-03-12T01:23:23;99762.38;;;-1.12;85.27
75538;BME280;64121;48.666;8.114;2023-03-12T01:25:48;99766.78;;;-1.11;85.27
75538;BME280;64121;48.666;8.114;2023-03-12T01:28:14;99780.69;;;-1.17;84.97
75538;BME280;64121;48.666;8.114;2023-03-12T01:30:41;99771.97;;;-1.19;86.37
75538;BME280;64121;48.666;8.114;2023-03-12T01:33:06;99768.44;;;-1.25;86.08
75538;BME280;64121;48.666;8.114;2023-03-12T01:35:35;99774.44;;;-1.23;84.58
75538;BME280;64121;48.666;8.114;2023-03-12T01:38:00;99774.41;;;-1.13;85.45
75538;BME280;64121;48.666;8.114;2023-03-12T01:40:25;99760.19;;;-1.05;85.45
75538;BME280;64121;48.666;8.114;2023-03-12T01:42:51;99765.91;;;-1.01;86.02
75538;BME280;64121;48.666;8.114;2023-03-12T01:48:21;99751.16;;;-1.00;86.28
75538;BME280;64121;48.666;8.114;2023-03-12T01:50:47;99751.41;;;-0.97;85.41
75538;BME280;64121;48.666;8.114;2023-03-12T01:53:12;99751.16;;;-0.90;86.44
75538;BME280;64121;48.666;8.114;2023-03-12T01:55:38;99745.16;;;-0.92;86.18
75538;BME280;64121;48.666;8.114;2023-03-12T01:58:04;99740.22;;;-0.90;84.50
75538;BME280;64121;48.666;8.114;2023-03-12T02:00:30;99735.56;;;-0.84;84.78
75538;BME280;64121;48.666;8.114;2023-03-12T02:02:59;99730.06;;;-0.79;83.89
75538;BME280;64121;48.666;8.114;2023-03-12T02:05:32;99722.13;;;-0.76;85.14
75538;BME280;64121;48.666;8.114;2023-03-12T02:08:00;99724.56;;;-0.69;84.89
75538;BME280;64121;48.666;8.114;2023-03-12T02:10:26;99725.63;;;-0.65;86.48
75538;BME280;64121;48.666;8.114;2023-03-12T02:12:51;99719.34;;;-0.66;85.54
75538;BME280;64121;48.666;8.114;2023-03-12T02:15:18;99715.75;;;-0.61;86.09
75538;BME280;64121;48.666;8.114;2023-03-12T02:17:43;99712.50;;;-0.63;85.38
75538;BME280;64121;48.666;8.114;2023-03-12T02:20:12;99704.25;;;-0.58;85.89
75538;BME280;64121;48.666;8.114;2023-03-12T02:22:45;99702.06;;;-0.56;85.29
75538;BME280;64121;48.666;8.114;2023-03-12T02:25:20;99703.94;;;-0.46;85.19
75538;BME280;64121;48.666;8.114;2023-03-12T02:27:50;99693.28;;;-0.48;85.86
75538;BME280;64121;48.666;8.114;2023-03-12T02:30:17;99699.03;;;-0.49;84.89
75538;BME280;64121;48.666;8.114;2023-03-12T02:32:44;99693.78;;;-0.41;85.39
75538;BME280;64121;48.666;8.114;2023-03-12T02:35:10;99678.47;;;-0.37;85.47
75538;BME280;64121;48.666;8.114;2023-03-12T02:37:46;99678.75;;;-0.43;84.94
75538;BME280;64121;48.666;8.114;2023-03-12T02:40:15;99672.19;;;-0.37;85.07
75538;BME280;64121;48.666;8.114;2023-03-12T02:42:43;99660.16;;;-0.36;84.75
75538;BME280;64121;48.666;8.114;2023-03-12T02:45:09;99668.06;;;-0.35;85.15
75538;BME280;64121;48.666;8.114;2023-03-12T02:47:34;99665.56;;;-0.31;83.53
75538;BME280;64121;48.666;8.114;2023-03-12T02:49:59;99666.56;;;-0.22;83.90
75538;BME280;64121;48.666;8.114;2023-03-12T02:52:25;99667.66;;;-0.18;84.06
75538;BME280;64121;48.666;8.114;2023-03-12T02:54:50;99667.84;;;-0.09;83.83
75538;BME280;64121;48.666;8.114;2023-03-12T02:57:15;99662.91;;;-0.07;83.35
75538;BME280;64121;48.666;8.114;2023-03-12T02:59:42;99675.47;;;-0.06;82.99
75538;BME280;64121;48.666;8.114;2023-03-12T03:02:07;99681.44;;;0.01;82.96
75538;BME280;64121;48.666;8.114;2023-03-12T03:04:33;99680.34;;;0.02;83.34
75538;BME280;64121;48.666;8.114;2023-03-12T03:06:58;99687.97;;;0.05;83.50
75538;BME280;64121;48.666;8.114;2023-03-12T03:09:23;99683.84;;;0.08;83.12
75538;BME280;64121;48.666;8.114;2023-03-12T03:11:49;99682.97;;;0.12;84.16
75538;BME280;64121;48.666;8.114;2023-03-12T03:14:14;99684.00;;;0.21;84.51
75538;BME280;64121;48.666;8.114;2023-03-12T03:16:41;99691.41;;;0.16;83.10
75538;BME280;64121;48.666;8.114;2023-03-12T03:19:07;99684.28;;;0.20;83.66
75538;BME280;64121;48.666;8.114;2023-03-12T03:21:32;99687.25;;;0.23;83.39
75538;BME280;64121;48.666;8.114;2023-03-12T03:23:58;99690.53;;;0.25;82.46
75538;BME280;64121;48.666;8.114;2023-03-12T03:26:23;99685.19;;;0.39;82.01
75538;BME280;64121;48.666;8.114;2023-03-12T03:28:49;99689.34;;;0.32;81.81
75538;BME280;64121;48.666;8.114;2023-03-12T03:31:15;99694.25;;;0.35;82.33
75538;BME280;64121;48.666;8.114;2023-03-12T03:33:43;99695.34;;;0.34;82.24
75538;BME280;64121;48.666;8.114;2023-03-12T03:36:09;99681.38;;;0.35;82.28
75538;BME280;64121;48.666;8.114;2023-03-12T03:38:35;99683.81;;;0.37;81.14
75538;BME280;64121;48.666;8.114;2023-03-12T03:41:01;99678.31;;;0.42;81.34
75538;BME280;64121;48.666;8.114;2023-03-12T03:43:28;99680.00;;;0.38;81.37
75538;BME280;64121;48.666;8.114;2023-03-12T03:45:56;99668.19;;;0.42;82.09
75538;BME280;64121;48.666;8.114;2023-03-12T03:48:21;99679.94;;;0.43;80.72
75538;BME280;64121;48.666;8.114;2023-03-12T03:50:48;99670.56;;;0.49;81.31
75538;BME280;64121;48.666;8.114;2023-03-12T03:53:13;99656.31;;;0.52;82.05
75538;BME280;64121;48.666;8.114;2023-03-12T03:55:39;99649.44;;;0.54;82.14
75538;BME280;64121;48.666;8.114;2023-03-12T03:58:05;99652.75;;;0.51;82.21
75538;BME280;64121;48.666;8.114;2023-03-12T04:00:30;99660.66;;;0.53;82.31
75538;BME280;64121;48.666;8.114;2023-03-12T04:02:55;99659.03;;;0.52;82.13
75538;BME280;64121;48.666;8.114;2023-03-12T04:05:21;99666.41;;;0.56;81.89
75538;BME280;64121;48.666;8.114;2023-03-12T04:07:48;99663.59;;;0.62;82.00
75538;BME280;64121;48.666;8.114;2023-03-12T04:10:14;99654.81;;;0.65;81.53
75538;BME280;64121;48.666;8.114;2023-03-12T04:12:39;99655.56;;;0.70;81.78
75538;BME280;64121;48.666;8.114;2023-03-12T04:15:05;99661.31;;;0.69;81.23
75538;BME280;64121;48.666;8.114;2023-03-12T04:17:31;99657.69;;;0.73;81.71
75538;BME280;64121;48.666;8.114;2023-03-12T04:19:56;99660.19;;;0.75;80.85
75538;BME280;64121;48.666;8.114;2023-03-12T04:22:22;99660.69;;;0.77;80.50
75538;BME280;64121;48.666;8.114;2023-03-12T04:24:48;99652.41;;;0.82;81.53
75538;BME280;64121;48.666;8.114;2023-03-12T04:27:14;99643.31;;;0.86;83.00
75538;BME280;64121;48.666;8.114;2023-03-12T04:29:39;99649.16;;;0.80;82.45
75538;BME280;64121;48.666;8.114;2023-03-12T04:32:05;99651.00;;;0.84;82.63
75538;BME280;64121;48.666;8.114;2023-03-12T04:34:30;99648.56;;;0.83;82.44
75538;BME280;64121;48.666;8.114;2023-03-12T04:36:56;99642.28;;;0.82;82.30
75538;BME280;64121;48.666;8.114;2023-03-12T04:39:21;99640.34;;;0.83;83.47
75538;BME280;64121;48.666;8.114;2023-03-12T04:41:48;99640.06;;;0.84;83.78
75538;BME280;64121;48.666;8.114;2023-03-12T04:44:14;99650.19;;;0.84;85.19
75538;BME280;64121;48.666;8.114;2023-03-12T04:46:39;99650.91;;;0.95;82.98
75538;BME280;64121;48.666;8.114;2023-03-12T04:49:05;99647.91;;;0.91;83.52
75538;BME280;64121;48.666;8.114;2023-03-12T04:51:30;99644.13;;;0.87;84.25
75538;BME280;64121;48.666;8.114;2023-03-12T04:53:56;99643.59;;;0.85;85.39
75538;BME280;64121;48.666;8.114;2023-03-12T04:56:21;99657.59;;;0.83;86.58
75538;BME280;64121;48.666;8.114;2023-03-12T04:58:48;99668.91;;;0.77;85.87
75538;BME280;64121;48.666;8.114;2023-03-12T05:01:22;99659.09;;;0.95;86.12
75538;BME280;64121;48.666;8.114;2023-03-12T05:03:47;99667.88;;;0.91;86.84
75538;BME280;64121;48.666;8.114;2023-03-12T05:06:13;99670.84;;;0.76;87.67
75538;BME280;64121;48.666;8.114;2023-03-12T05:08:38;99676.75;;;0.83;88.73
75538;BME280;64121;48.666;8.114;2023-03-12T05:11:03;99671.13;;;0.75;88.28
75538;BME280;64121;48.666;8.114;2023-03-12T05:13:29;99670.47;;;0.83;88.22
75538;BME280;64121;48.666;8.114;2023-03-12T05:15:55;99667.00;;;0.77;88.48
75538;BME280;64121;48.666;8.114;2023-03-12T05:18:21;99670.56;;;0.73;90.23
75538;BME280;64121;48.666;8.114;2023-03-12T05:20:46;99664.28;;;0.72;90.15
75538;BME280;64121;48.666;8.114;2023-03-12T05:23:11;99657.47;;;0.70;89.99
75538;BME280;64121;48.666;8.114;2023-03-12T05:25:38;99667.44;;;0.60;89.17
75538;BME280;64121;48.666;8.114;2023-03-12T05:28:03;99660.28;;;0.65;88.99
75538;BME280;64121;48.666;8.114;2023-03-12T05:30:29;99657.53;;;0.65;88.29
75538;BME280;64121;48.666;8.114;2023-03-12T05:32:55;99661.75;;;0.57;89.13
75538;BME280;64121;48.666;8.114;2023-03-12T05:35:21;99668.50;;;0.65;89.57
75538;BME280;64121;48.666;8.114;2023-03-12T05:37:46;99667.91;;;0.68;90.07
75538;BME280;64121;48.666;8.114;2023-03-12T05:40:12;99671.28;;;0.59;91.25
75538;BME280;64121;48.666;8.114;2023-03-12T05:42:37;99676.47;;;0.61;90.75
75538;BME280;64121;48.666;8.114;2023-03-12T05:45:04;99669.75;;;0.48;91.40
75538;BME280;64121;48.666;8.114;2023-03-12T05:47:30;99676.28;;;0.52;91.56
75538;BME280;64121;48.666;8.114;2023-03-12T05:49:56;99676.28;;;0.52;92.18
75538;BME280;64121;48.666;8.114;2023-03-12T05:52:22;99671.88;;;0.56;92.01
75538;BME280;64121;48.666;8.114;2023-03-12T05:54:47;99662.78;;;0.61;91.42
75538;BME280;64121;48.666;8.114;2023-03-12T05:57:12;99661.97;;;0.60;92.21
75538;BME280;64121;48.666;8.114;2023-03-12T05:59:38;99661.91;;;0.66;91.03
75538;BME280;64121;48.666;8.114;2023-03-12T06:02:03;99666.22;;;0.72;92.29
75538;BME280;64121;48.666;8.114;2023-03-12T06:04:29;99662.91;;;0.75;92.06
75538;BME280;64121;48.666;8.114;2023-03-12T06:06:55;99649.84;;;0.67;92.85
75538;BME280;64121;48.666;8.114;2023-03-12T06:09:21;99653.19;;;0.64;93.27
75538;BME280;64121;48.666;8.114;2023-03-12T06:11:46;99652.59;;;0.67;93.94
75538;BME280;64121;48.666;8.114;2023-03-12T06:14:11;99654.97;;;0.73;93.28
75538;BME280;64121;48.666;8.114;2023-03-12T06:16:37;99662.91;;;0.75;93.31
75538;BME280;64121;48.666;8.114;2023-03-12T06:19:02;99666.16;;;0.77;92.68
75538;BME280;64121;48.666;8.114;2023-03-12T06:21:30;99652.69;;;0.80;92.85
75538;BME280;64121;48.666;8.114;2023-03-12T06:23:58;99658.09;;;0.85;92.86
75538;BME280;64121;48.666;8.114;2023-03-12T06:26:24;99655.91;;;0.87;92.55
75538;BME280;64121;48.666;8.114;2023-03-12T06:28:50;99651.44;;;0.91;91.92
75538;BME280;64121;48.666;8.114;2023-03-12T06:31:16;99655.25;;;0.96;91.16
75538;BME280;64121;48.666;8.114;2023-03-12T06:33:42;99652.44;;;1.01;91.00
75538;BME280;64121;48.666;8.114;2023-03-12T06:36:08;99651.84;;;1.04;91.01
75538;BME280;64121;48.666;8.114;2023-03-12T06:38:35;99660.78;;;1.14;91.77
75538;BME280;64121;48.666;8.114;2023-03-12T06:41:04;99657.78;;;1.11;93.44
75538;BME280;64121;48.666;8.114;2023-03-12T06:43:32;99655.00;;;1.16;93.39
75538;BME280;64121;48.666;8.114;2023-03-12T06:45:59;99658.75;;;1.20;93.17
75538;BME280;64121;48.666;8.114;2023-03-12T06:48:25;99651.06;;;1.22;92.88
75538;BME280;64121;48.666;8.114;2023-03-12T06:50:51;99643.94;;;1.21;92.29
75538;BME280;64121;48.666;8.114;2023-03-12T06:53:17;99648.75;;;1.29;91.91
75538;BME280;64121;48.666;8.114;2023-03-12T06:55:42;99646.41;;;1.41;91.91
75538;BME280;64121;48.666;8.114;2023-03-12T06:58:09;99646.84;;;1.48;92.92
75538;BME280;64121;48.666;8.114;2023-03-12T07:00:35;99638.06;;;1.65;91.58
75538;BME280;64121;48.666;8.114;2023-03-12T07:03:00;99645.91;;;1.91;90.90
75538;BME280;64121;48.666;8.114;2023-03-12T07:05:26;99651.22;;;1.68;92.18
75538;BME280;64121;48.666;8.114;2023-03-12T07:07:51;99652.16;;;1.77;91.66
75538;BME280;64121;48.666;8.114;2023-03-12T07:10:17;99643.47;;;1.89;92.19
75538;BME280;64121;48.666;8.114;2023-03-12T07:12:43;99645.59;;;1.92;91.30
75538;BME280;64121;48.666;8.114;2023-03-12T07:15:10;99658.88;;;1.85;91.61
75538;BME280;64121;48.666;8.114;2023-03-12T07:17:36;99661.19;;;1.78;92.93
75538;BME280;64121;48.666;8.114;2023-03-12T07:20:02;99669.84;;;1.85;92.52
75538;BME280;64121;48.666;8.114;2023-03-12T07:22:27;99667.97;;;1.99;91.85
75538;BME280;64121;48.666;8.114;2023-03-12T07:24:53;99674.66;;;1.93;92.72
75538;BME280;64121;48.666;8.114;2023-03-12T07:27:18;99667.72;;;1.82;92.54
75538;BME280;64121;48.666;8.114;2023-03-12T07:29:43;99659.13;;;2.02;93.08
75538;BME280;64121;48.666;8.114;2023-03-12T07:32:10;99673.84;;;1.93;92.75
75538;BME280;64121;48.666;8.114;2023-03-12T07:34:36;99669.59;;;2.00;93.39
75538;BME280;64121;48.666;8.114;2023-03-12T07:37:01;99677.94;;;1.95;92.99
75538;BME280;64121;48.666;8.114;2023-03-12T07:39:27;99679.97;;;2.03;93.46
75538;BME280;64121;48.666;8.114;2023-03-12T07:41:52;99679.56;;;1.96;93.65
75538;BME280;64121;48.666;8.114;2023-03-12T07:44:17;99679.66;;;1.91;94.51
75538;BME280;64121;48.666;8.114;2023-03-12T07:46:43;99681.47;;;1.96;94.91
75538;BME280;64121;48.666;8.114;2023-03-12T07:49:09;99686.06;;;2.00;95.18
75538;BME280;64121;48.666;8.114;2023-03-12T07:51:35;99688.81;;;2.00;94.63
75538;BME280;64121;48.666;8.114;2023-03-12T07:54:00;99689.16;;;2.12;94.30
75538;BME280;64121;48.666;8.114;2023-03-12T07:56:26;99689.59;;;2.20;93.83
75538;BME280;64121;48.666;8.114;2023-03-12T07:58:51;99686.69;;;2.30;93.73
75538;BME280;64121;48.666;8.114;2023-03-12T08:01:17;99686.88;;;2.33;93.19
75538;BME280;64121;48.666;8.114;2023-03-12T08:03:42;99701.00;;;2.27;93.31
75538;BME280;64121;48.666;8.114;2023-03-12T08:06:09;99699.19;;;2.36;94.58
75538;BME280;64121;48.666;8.114;2023-03-12T08:08:34;99713.63;;;2.41;93.96
75538;BME280;64121;48.666;8.114;2023-03-12T08:11:02;99712.31;;;2.39;94.28
75538;BME280;64121;48.666;8.114;2023-03-12T08:13:28;99717.84;;;2.53;94.13
75538;BME280;64121;48.666;8.114;2023-03-12T08:15:54;99716.22;;;2.52;93.94
75538;BME280;64121;48.666;8.114;2023-03-12T08:18:20;99732.47;;;2.48;93.98
75538;BME280;64121;48.666;8.114;2023-03-12T08:20:49;99727.34;;;2.41;94.33
75538;BME280;64121;48.666;8.114;2023-03-12T08:23:16;99730.97;;;2.56;94.98
75538;BME280;64121;48.666;8.114;2023-03-12T08:25:43;99731.41;;;2.63;94.28
75538;BME280;64121;48.666;8.114;2023-03-12T08:28:09;99730.38;;;2.72;94.36
75538;BME280;64121;48.666;8.114;2023-03-12T08:30:34;99733.66;;;2.88;93.99
75538;BME280;64121;48.666;8.114;2023-03-12T08:32:59;99742.00;;;2.97;93.67
75538;BME280;64121;48.666;8.114;2023-03-12T08:35:25;99730.13;;;3.01;93.64
75538;BME280;64121;48.666;8.114;2023-03-12T08:37:50;99735.41;;;3.12;94.08
75538;BME280;64121;48.666;8.114;2023-03-12T08:40:17;99738.66;;;3.00;96.02
75538;BME280;64121;48.666;8.114;2023-03-12T08:42:43;99745.28;;;2.99;97.62
75538;BME280;64121;48.666;8.114;2023-03-12T08:45:10;99748.84;;;3.13;98.28
75538;BME280;64121;48.666;8.114;2023-03-12T08:47:36;99751.50;;;3.04;98.55
75538;BME280;64121;48.666;8.114;2023-03-12T08:50:02;99743.16;;;3.23;98.27
75538;BME280;64121;48.666;8.114;2023-03-12T08:52:27;99747.72;;;3.42;97.44
75538;BME280;64121;48.666;8.114;2023-03-12T08:54:53;99751.34;;;3.51;96.42
75538;BME280;64121;48.666;8.114;2023-03-12T08:57:19;99747.78;;;3.64;95.63
75538;BME280;64121;48.666;8.114;2023-03-12T08:59:45;99752.56;;;3.72;95.90
75538;BME280;64121;48.666;8.114;2023-03-12T09:02:11;99762.97;;;3.61;98.21
75538;BME280;64121;48.666;8.114;2023-03-12T09:04:36;99752.00;;;3.84;97.71
75538;BME280;64121;48.666;8.114;2023-03-12T09:07:02;99754.84;;;3.92;97.24
75538;BME280;64121;48.666;8.114;2023-03-12T09:09:28;99757.69;;;4.01;96.78
75538;BME280;64121;48.666;8.114;2023-03-12T09:11:53;99757.63;;;4.15;97.10
75538;BME280;64121;48.666;8.114;2023-03-12T09:14:20;99757.78;;;4.32;97.19
75538;BME280;64121;48.666;8.114;2023-03-12T09:16:45;99752.38;;;4.49;96.97
75538;BME280;64121;48.666;8.114;2023-03-12T09:19:11;99756.38;;;4.66;97.11
75538;BME280;64121;48.666;8.114;2023-03-12T09:21:36;99763.09;;;4.82;96.96
75538;BME280;64121;48.666;8.114;2023-03-12T09:24:02;99766.97;;;5.03;97.83
75538;BME280;64121;48.666;8.114;2023-03-12T09:26:27;99764.78;;;5.23;97.75
75538;BME280;64121;48.666;8.114;2023-03-12T09:28:53;99762.56;;;5.42;98.39
75538;BME280;64121;48.666;8.114;2023-03-12T09:31:19;99756.94;;;5.73;98.07
75538;BME280;64121;48.666;8.114;2023-03-12T09:33:45;99761.41;;;6.08;98.22
75538;BME280;64121;48.666;8.114;2023-03-12T09:36:10;99758.28;;;6.45;98.40
75538;BME280;64121;48.666;8.114;2023-03-12T09:38:35;99753.19;;;6.81;97.12
75538;BME280;64121;48.666;8.114;2023-03-12T09:41:16;99754.56;;;7.05;96.21
75538;BME280;64121;48.666;8.114;2023-03-12T09:43:45;99758.06;;;7.31;95.35
75538;BME280;64121;48.666;8.114;2023-03-12T09:46:14;99754.25;;;7.44;94.83
75538;BME280;64121;48.666;8.114;2023-03-12T09:48:44;99766.88;;;7.63;94.60
75538;BME280;64121;48.666;8.114;2023-03-12T09:51:16;99759.16;;;7.68;93.85
75538;BME280;64121;48.666;8.114;2023-03-12T09:53:44;99766.00;;;7.71;93.86
75538;BME280;64121;48.666;8.114;2023-03-12T09:56:13;99763.78;;;7.85;93.22
75538;BME280;64121;48.666;8.114;2023-03-12T09:58:39;99770.72;;;8.00;92.73
75538;BME280;64121;48.666;8.114;2023-03-12T10:01:20;99775.63;;;8.15;92.09
75538;BME280;64121;48.666;8.114;2023-03-12T10:03:58;99779.69;;;8.17;92.13
75538;BME280;64121;48.666;8.114;2023-03-12T10:06:29;99764.50;;;8.44;91.57
75538;BME280;64121;48.666;8.114;2023-03-12T10:09:05;99769.53;;;8.63;90.66
75538;BME280;64121;48.666;8.114;2023-03-12T10:11:43;99776.91;;;8.92;89.65
75538;BME280;64121;48.666;8.114;2023-03-12T10:14:29;99778.28;;;9.31;88.57
75538;BME280;64121;48.666;8.114;2023-03-12T10:17:09;99771.81;;;9.52;87.33
75538;BME280;64121;48.666;8.114;2023-03-12T10:19:55;99779.44;;;9.67;87.05
75538;BME280;64121;48.666;8.114;2023-03-12T10:22:33;99780.69;;;9.82;86.04
75538;BME280;64121;48.666;8.114;2023-03-12T10:25:13;99780.47;;;9.75;85.21
75538;BME280;64121;48.666;8.114;2023-03-12T10:27:42;99783.34;;;9.78;85.39
75538;BME280;64121;48.666;8.114;2023-03-12T10:30:15;99783.72;;;9.89;85.11
75538;BME280;64121;48.666;8.114;2023-03-12T10:32:45;99785.88;;;9.95;85.51
75538;BME280;64121;48.666;8.114;2023-03-12T10:35:17;99788.06;;;10.02;85.21
75538;BME280;64121;48.666;8.114;2023-03-12T10:37:45;99795.03;;;10.08;84.62
75538;BME280;64121;48.666;8.114;2023-03-12T10:40:13;99799.53;;;10.13;84.54
75538;BME280;64121;48.666;8.114;2023-03-12T10:42:39;99796.16;;;10.31;85.09
75538;BME280;64121;48.666;8.114;2023-03-12T10:45:23;99787.72;;;10.56;84.06
75538;BME280;64121;48.666;8.114;2023-03-12T10:47:51;99784.59;;;10.85;83.26
75538;BME280;64121;48.666;8.114;2023-03-12T10:50:21;99792.09;;;10.97;81.80
75538;BME280;64121;48.666;8.114;2023-03-12T10:52:48;99795.41;;;11.03;81.17
75538;BME280;64121;48.666;8.114;2023-03-12T10:55:22;99788.50;;;11.12;81.44
75538;BME280;64121;48.666;8.114;2023-03-12T10:57:48;99786.19;;;11.30;80.81
75538;BME280;64121;48.666;8.114;2023-03-12T11:00:18;99785.72;;;11.28;80.47
75538;BME280;64121;48.666;8.114;2023-03-12T11:02:44;99780.06;;;11.25;80.56
75538;BME280;64121;48.666;8.114;2023-03-12T11:05:21;99780.50;;;11.11;81.36
75538;BME280;64121;48.666;8.114;2023-03-12T11:07:47;99775.50;;;11.16;80.36
75538;BME280;64121;48.666;8.114;2023-03-12T11:10:21;99774.97;;;11.27;79.42
75538;BME280;64121;48.666;8.114;2023-03-12T11:13:19;99767.13;;;11.48;79.83
75538;BME280;64121;48.666;8.114;2023-03-12T11:15:45;99767.34;;;11.55;78.39
75538;BME280;64121;48.666;8.114;2023-03-12T11:18:19;99778.91;;;11.57;78.74
75538;BME280;64121;48.666;8.114;2023-03-12T11:20:47;99773.34;;;11.57;77.72
75538;BME280;64121;48.666;8.114;2023-03-12T11:23:14;99772.34;;;11.65;78.58
75538;BME280;64121;48.666;8.114;2023-03-12T11:25:40;99775.03;;;11.93;78.61
75538;BME280;64121;48.666;8.114;2023-03-12T11:28:12;99775.97;;;12.17;76.51
75538;BME280;64121;48.666;8.114;2023-03-12T11:30:43;99776.91;;;12.24;78.22
75538;BME280;64121;48.666;8.114;2023-03-12T11:33:09;99774.75;;;12.33;77.00
75538;BME280;64121;48.666;8.114;2023-03-12T11:35:44;99788.13;;;12.08;75.20
75538;BME280;64121;48.666;8.114;2023-03-12T11:38:17;99793.19;;;11.87;76.04
75538;BME280;64121;48.666;8.114;2023-03-12T11:41:00;99787.81;;;11.47;79.02
75538;BME280;64121;48.666;8.114;2023-03-12T11:43:44;99791.03;;;11.17;79.81
75538;BME280;64121;48.666;8.114;2023-03-12T11:46:21;99796.00;;;10.96;81.39
75538;BME280;64121;48.666;8.114;2023-03-12T11:48:57;99803.06;;;11.06;82.01
75538;BME280;64121;48.666;8.114;2023-03-12T11:51:32;99809.88;;;11.08;82.97
75538;BME280;64121;48.666;8.114;2023-03-12T11:54:20;99787.03;;;10.87;83.08
75538;BME280;64121;48.666;8.114;2023-03-12T11:56:52;99798.66;;;11.05;80.98
75538;BME280;64121;48.666;8.114;2023-03-12T11:59:29;99796.50;;;11.14;80.18
75538;BME280;64121;48.666;8.114;2023-03-12T12:02:12;99792.84;;;11.26;79.43
75538;BME280;64121;48.666;8.114;2023-03-12T12:07:58;99777.91;;;11.49;78.95
75538;BME280;64121;48.666;8.114;2023-03-12T12:10:34;99776.38;;;11.52;77.89
75538;BME280;64121;48.666;8.114;2023-03-12T12:13:08;99767.34;;;11.55;75.31
75538;BME280;64121;48.666;8.114;2023-03-12T12:15:43;99772.53;;;11.57;74.32
75538;BME280;64121;48.666;8.114;2023-03-12T12:18:26;99763.00;;;11.73;72.51
75538;BME280;64121;48.666;8.114;2023-03-12T12:20:57;99769.03;;;11.91;72.11
75538;BME280;64121;48.666;8.114;2023-03-12T12:23:34;99762.72;;;11.94;71.75
75538;BME280;64121;48.666;8.114;2023-03-12T12:26:08;99775.47;;;11.95;70.31
75538;BME280;64121;48.666;8.114;2023-03-12T12:28:51;99776.81;;;12.01;70.57
75538;BME280;64121;48.666;8.114;2023-03-12T12:31:28;99773.09;;;12.13;68.99
75538;BME280;64121;48.666;8.114;2023-03-12T12:34:11;99763.69;;;12.21;69.38
75538;BME280;64121;48.666;8.114;2023-03-12T12:36:43;99776.22;;;12.47;70.36
75538;BME280;64121;48.666;8.114;2023-03-12T12:39:12;99768.88;;;12.58;70.37
75538;BME280;64121;48.666;8.114;2023-03-12T12:41:44;99768.44;;;12.56;70.01
75538;BME280;64121;48.666;8.114;2023-03-12T12:44:15;99767.63;;;12.55;68.87
75538;BME280;64121;48.666;8.114;2023-03-12T12:46:45;99763.78;;;12.44;68.47
75538;BME280;64121;48.666;8.114;2023-03-12T12:49:15;99763.94;;;12.32;69.68
75538;BME280;64121;48.666;8.114;2023-03-12T12:51:46;99769.13;;;12.14;71.40
75538;BME280;64121;48.666;8.114;2023-03-12T12:54:17;99763.44;;;11.91;70.90
75538;BME280;64121;48.666;8.114;2023-03-12T12:56:47;99782.06;;;11.71;72.26
75538;BME280;64121;48.666;8.114;2023-03-12T12:59:29;99782.31;;;11.66;72.32
75538;BME280;64121;48.666;8.114;2023-03-12T13:01:59;99781.44;;;11.62;72.33
75538;BME280;64121;48.666;8.114;2023-03-12T13:04:29;99770.00;;;11.67;72.28
75538;BME280;64121;48.666;8.114;2023-03-12T13:06:59;99763.38;;;11.56;72.96
75538;BME280;64121;48.666;8.114;2023-03-12T13:09:37;99764.41;;;11.67;70.16
75538;BME280;64121;48.666;8.114;2023-03-12T13:12:20;99769.81;;;11.76;70.91
75538;BME280;64121;48.666;8.114;2023-03-12T13:14:50;99766.13;;;11.88;71.67
75538;BME280;64121;48.666;8.114;2023-03-12T13:17:29;99772.56;;;12.07;71.02